createdAt,value
2023-01-22T00:00:58.006Z,53.53
2023-01-22T00:03:24.828Z,53.28
2023-01-22T00:05:51.687Z,53.69
2023-01-22T00:08:18.714Z,53.48
2023-01-22T00:10:45.472Z,53.28
2023-01-22T00:13:12.179Z,53.09
2023-01-22T00:15:39.007Z,52.91
2023-01-22T00:18:05.975Z,53.18
2023-01-22T00:20:32.812Z,53.08
2023-01-22T00:22:59.590Z,53.13
2023-01-22T00:25:26.233Z,52.69
2023-01-22T00:27:53.061Z,52.80
2023-01-22T00:30:20.213Z,52.55
2023-01-22T00:32:47.677Z,52.86
2023-01-22T00:35:14.531Z,52.69
2023-01-22T00:37:41.311Z,52.74
2023-01-22T00:40:08.210Z,52.54
2023-01-22T00:42:34.874Z,52.47
2023-01-22T00:45:01.753Z,52.60
2023-01-22T00:47:29.636Z,52.30
2023-01-22T00:49:56.307Z,52.40
2023-01-22T00:52:22.754Z,52.57
2023-01-22T00:54:49.242Z,52.44
2023-01-22T00:57:16.194Z,52.41
2023-01-22T00:59:42.611Z,52.67
2023-01-22T01:02:09.177Z,52.33
2023-01-22T01:04:36.122Z,52.65
2023-01-22T01:07:02.817Z,52.53
2023-01-22T01:09:29.290Z,52.49
2023-01-22T01:11:56.193Z,52.50
2023-01-22T01:14:23.479Z,52.73
2023-01-22T01:16:50.365Z,52.81
2023-01-22T01:19:16.810Z,52.70
2023-01-22T01:21:43.987Z,52.79
2023-01-22T01:24:10.686Z,52.74
2023-01-22T01:26:37.547Z,52.64
2023-01-22T01:29:04.007Z,52.70
2023-01-22T01:31:30.425Z,52.56
2023-01-22T01:33:57.319Z,52.71
2023-01-22T01:36:45.876Z,52.78
2023-01-22T01:39:10.622Z,52.75
2023-01-22T01:41:37.610Z,52.71
2023-01-22T01:44:04.570Z,52.83
2023-01-22T01:46:31.145Z,52.63
2023-01-22T01:48:58.199Z,52.40
2023-01-22T01:51:24.629Z,52.70
2023-01-22T01:53:51.168Z,52.65
2023-01-22T01:56:17.880Z,52.64
2023-01-22T01:58:44.419Z,52.52
2023-01-22T02:01:11.123Z,52.59
2023-01-22T02:03:38.538Z,52.46
2023-01-22T02:06:06.489Z,52.64
2023-01-22T02:08:34.599Z,52.86
2023-01-22T02:11:01.511Z,52.58
2023-01-22T02:13:29.984Z,52.61
2023-01-22T02:15:56.673Z,52.55
2023-01-22T02:18:23.458Z,52.51
2023-01-22T02:20:50.384Z,52.39
2023-01-22T02:23:17.360Z,52.42
2023-01-22T02:25:43.885Z,52.42
2023-01-22T02:28:10.429Z,52.58
2023-01-22T02:30:37.085Z,52.74
2023-01-22T02:33:04.082Z,52.67
2023-01-22T02:35:30.500Z,52.60
2023-01-22T02:37:56.957Z,52.49
2023-01-22T02:40:23.364Z,52.43
2023-01-22T02:42:49.992Z,52.70
2023-01-22T02:45:16.419Z,52.78
2023-01-22T02:47:42.845Z,52.73
2023-01-22T02:50:09.657Z,52.46
2023-01-22T02:52:36.112Z,52.29
2023-01-22T02:55:02.761Z,52.49
2023-01-22T02:57:29.200Z,52.57
2023-01-22T02:59:55.888Z,52.49
2023-01-22T03:02:22.383Z,52.72
2023-01-22T03:04:49.372Z,52.55
2023-01-22T03:07:16.222Z,52.64
2023-01-22T03:09:43.081Z,52.65
2023-01-22T03:12:09.592Z,52.56
2023-01-22T03:14:37.900Z,52.56
2023-01-22T03:17:04.772Z,52.70
2023-01-22T03:19:32.233Z,52.50
2023-01-22T03:21:58.840Z,52.43
2023-01-22T03:24:26.140Z,52.77
2023-01-22T03:26:52.894Z,52.89
2023-01-22T03:29:19.714Z,52.77
2023-01-22T03:31:46.815Z,52.93
2023-01-22T03:34:13.671Z,52.63
2023-01-22T03:36:40.294Z,52.76
2023-01-22T03:39:07.197Z,52.69
2023-01-22T03:41:33.570Z,52.82
2023-01-22T03:43:59.983Z,52.76
2023-01-22T03:46:26.743Z,52.75
2023-01-22T03:48:53.133Z,52.93
2023-01-22T03:51:19.683Z,52.64
2023-01-22T03:53:46.688Z,52.83
2023-01-22T03:56:13.588Z,52.76
2023-01-22T03:58:40.026Z,52.82
2023-01-22T04:01:06.623Z,52.61
2023-01-22T04:03:34.665Z,52.85
2023-01-22T04:06:01.463Z,52.82
2023-01-22T04:08:29.319Z,52.68
2023-01-22T04:10:56.769Z,52.69
2023-01-22T04:13:24.607Z,52.39
2023-01-22T04:15:51.901Z,52.56
2023-01-22T04:18:19.463Z,52.62
2023-01-22T04:20:46.025Z,52.57
2023-01-22T04:23:13.575Z,52.63
2023-01-22T04:25:41.788Z,52.75
2023-01-22T04:28:08.984Z,52.84
2023-01-22T04:30:35.748Z,52.77
2023-01-22T04:33:02.888Z,52.81
2023-01-22T04:35:29.769Z,52.89
2023-01-22T04:37:56.785Z,53.00
2023-01-22T04:40:23.535Z,52.78
2023-01-22T04:42:50.037Z,53.00
2023-01-22T04:45:16.560Z,52.92
2023-01-22T04:47:43.194Z,53.02
2023-01-22T04:50:09.768Z,52.74
2023-01-22T04:52:36.639Z,52.86
2023-01-22T04:55:03.093Z,52.88
2023-01-22T04:57:29.813Z,52.78
2023-01-22T04:59:56.310Z,53.00
2023-01-22T05:02:22.734Z,53.00
2023-01-22T05:04:49.205Z,53.08
2023-01-22T05:07:15.756Z,53.33
2023-01-22T05:09:42.409Z,52.88
2023-01-22T05:12:09.036Z,53.04
2023-01-22T05:14:35.440Z,53.10
2023-01-22T05:17:02.051Z,52.98
2023-01-22T05:19:28.526Z,52.86
2023-01-22T05:21:55.125Z,52.94
2023-01-22T05:24:21.579Z,53.08
2023-01-22T05:26:48.183Z,53.01
2023-01-22T05:29:15.190Z,52.82
2023-01-22T05:31:41.920Z,53.18
2023-01-22T05:34:08.549Z,52.85
2023-01-22T05:36:35.998Z,53.11
2023-01-22T05:39:02.786Z,52.95
2023-01-22T05:41:30.061Z,53.20
2023-01-22T05:43:56.622Z,53.19
2023-01-22T05:46:23.368Z,53.25
2023-01-22T05:48:50.341Z,53.14
2023-01-22T05:51:17.075Z,53.07
2023-01-22T05:53:43.785Z,53.19
2023-01-22T05:56:10.411Z,53.00
2023-01-22T05:58:37.290Z,53.32
2023-01-22T06:01:03.803Z,53.34
2023-01-22T06:03:30.367Z,53.11
2023-01-22T06:05:57.105Z,53.15
2023-01-22T06:08:23.623Z,53.13
2023-01-22T06:10:50.594Z,53.38
2023-01-22T06:13:17.435Z,53.50
2023-01-22T06:15:44.196Z,53.35
2023-01-22T06:18:10.846Z,53.41
2023-01-22T06:20:37.380Z,53.42
2023-01-22T06:23:04.068Z,53.41
2023-01-22T06:25:30.930Z,53.07
2023-01-22T06:27:57.811Z,53.13
2023-01-22T06:30:24.173Z,53.30
2023-01-22T06:32:50.676Z,53.40
2023-01-22T06:35:17.616Z,53.16
2023-01-22T06:37:44.525Z,53.20
2023-01-22T06:40:11.040Z,53.25
2023-01-22T06:42:37.960Z,53.33
2023-01-22T06:45:04.683Z,53.22
2023-01-22T06:47:31.197Z,53.27
2023-01-22T06:49:57.922Z,53.17
2023-01-22T06:52:24.913Z,53.29
2023-01-22T06:54:51.940Z,53.28
2023-01-22T06:57:18.320Z,53.55
2023-01-22T06:59:44.848Z,53.31
2023-01-22T07:02:11.255Z,53.30
2023-01-22T07:04:37.672Z,53.50
2023-01-22T07:07:04.416Z,53.28
2023-01-22T07:09:31.000Z,53.41
2023-01-22T07:11:57.471Z,53.59
2023-01-22T07:14:36.435Z,53.44
2023-01-22T07:17:03.407Z,53.46
2023-01-22T07:19:29.935Z,53.45
2023-01-22T07:21:56.279Z,53.50
2023-01-22T07:24:22.546Z,53.37
2023-01-22T07:26:48.913Z,53.61
2023-01-22T07:29:15.329Z,53.44
2023-01-22T07:31:41.905Z,53.42
2023-01-22T07:34:08.430Z,53.50
2023-01-22T07:36:35.264Z,53.51
2023-01-22T07:39:01.622Z,53.50
2023-01-22T07:41:28.126Z,53.65
2023-01-22T07:43:55.458Z,53.43
2023-01-22T07:46:22.179Z,53.43
2023-01-22T07:48:49.002Z,53.45
2023-01-22T07:51:15.615Z,53.50
2023-01-22T07:53:42.758Z,53.49
2023-01-22T07:56:09.184Z,53.57
2023-01-22T07:58:36.004Z,53.66
2023-01-22T08:01:02.522Z,53.87
2023-01-22T08:03:29.250Z,53.62
2023-01-22T08:05:56.075Z,53.59
2023-01-22T08:08:22.846Z,53.70
2023-01-22T08:10:49.790Z,53.60
2023-01-22T08:13:16.193Z,53.55
2023-01-22T08:15:42.754Z,53.67
2023-01-22T08:18:09.489Z,53.91
2023-01-22T08:20:36.331Z,53.82
2023-01-22T08:23:02.915Z,53.90
2023-01-22T08:25:29.304Z,53.95
2023-01-22T08:27:55.822Z,53.78
2023-01-22T08:30:22.469Z,53.84
2023-01-22T08:32:48.883Z,53.77
2023-01-22T08:35:15.497Z,53.87
2023-01-22T08:37:41.924Z,54.04
2023-01-22T08:40:08.913Z,53.83
2023-01-22T08:42:35.418Z,53.85
2023-01-22T08:45:01.982Z,53.80
2023-01-22T08:47:29.011Z,53.84
2023-01-22T08:49:55.395Z,53.85
2023-01-22T08:52:21.884Z,54.09
2023-01-22T08:54:48.302Z,54.12
2023-01-22T08:57:14.711Z,53.88
2023-01-22T08:59:43.061Z,53.86
2023-01-22T09:02:11.748Z,54.03
2023-01-22T09:04:40.356Z,54.00
2023-01-22T09:07:06.797Z,54.21
2023-01-22T09:09:33.179Z,54.18
2023-01-22T09:11:59.610Z,54.05
2023-01-22T09:14:26.111Z,53.92
2023-01-22T09:16:52.549Z,54.10
2023-01-22T09:19:19.047Z,54.21
2023-01-22T09:21:45.510Z,54.22
2023-01-22T09:24:11.891Z,54.15
2023-01-22T09:26:38.725Z,54.14
2023-01-22T09:29:05.579Z,54.16
2023-01-22T09:31:32.812Z,54.08
2023-01-22T09:33:59.817Z,54.10
2023-01-22T09:36:26.154Z,54.29
2023-01-22T09:38:52.622Z,54.44
2023-01-22T09:41:19.047Z,54.46
2023-01-22T09:43:45.710Z,54.45
2023-01-22T09:46:12.320Z,54.29
2023-01-22T09:48:39.405Z,54.55
2023-01-22T09:51:05.804Z,54.45
2023-01-22T09:53:32.987Z,54.68
2023-01-22T09:55:59.830Z,54.62
2023-01-22T09:58:26.324Z,54.65
2023-01-22T10:00:52.901Z,55.10
2023-01-22T10:03:21.346Z,55.15
2023-01-22T10:05:49.421Z,55.44
2023-01-22T10:08:16.483Z,55.80
2023-01-22T10:10:43.916Z,55.64
2023-01-22T10:13:10.317Z,55.71
2023-01-22T10:15:36.856Z,55.92
2023-01-22T10:18:03.956Z,55.96
2023-01-22T10:20:31.136Z,55.50
2023-01-22T10:22:57.586Z,55.29
2023-01-22T10:25:23.961Z,54.99
2023-01-22T10:27:50.854Z,54.51
2023-01-22T10:30:17.802Z,54.40
2023-01-22T10:32:44.446Z,54.35
2023-01-22T10:35:11.239Z,54.01
2023-01-22T10:37:37.720Z,54.08
2023-01-22T10:40:04.332Z,54.02
2023-01-22T10:42:31.017Z,53.63
2023-01-22T10:44:57.792Z,53.96
2023-01-22T10:47:24.604Z,53.64
2023-01-22T10:49:51.207Z,53.99
2023-01-22T10:52:17.574Z,53.65
2023-01-22T10:54:44.295Z,53.91
2023-01-22T10:57:11.108Z,54.20
2023-01-22T10:59:37.755Z,53.93
2023-01-22T11:02:04.675Z,54.12
2023-01-22T11:04:31.321Z,54.19
2023-01-22T11:06:57.708Z,54.29
2023-01-22T11:09:26.452Z,54.98
2023-01-22T11:11:53.230Z,54.48
2023-01-22T11:14:19.551Z,54.08
2023-01-22T11:16:46.931Z,54.03
2023-01-22T11:19:14.075Z,53.28
2023-01-22T11:21:41.103Z,53.10
2023-01-22T11:24:07.944Z,53.35
2023-01-22T11:26:35.251Z,53.44
2023-01-22T11:29:02.316Z,53.44
2023-01-22T11:31:29.286Z,53.90
2023-01-22T11:33:56.261Z,53.80
2023-01-22T11:36:22.658Z,54.05
2023-01-22T11:38:49.602Z,54.48
2023-01-22T11:41:16.239Z,54.43
2023-01-22T11:43:42.606Z,54.50
2023-01-22T11:46:09.585Z,54.62
2023-01-22T11:48:36.331Z,54.73
2023-01-22T11:51:03.225Z,54.98
2023-01-22T11:53:29.658Z,54.99
2023-01-22T11:55:55.971Z,55.06
2023-01-22T11:58:22.616Z,54.92
2023-01-22T12:00:49.043Z,54.94
2023-01-22T12:03:15.701Z,55.35
2023-01-22T12:05:42.440Z,55.28
2023-01-22T12:08:09.341Z,55.01
2023-01-22T12:10:35.884Z,55.07
2023-01-22T12:13:02.653Z,55.09
2023-01-22T12:15:29.275Z,55.09
2023-01-22T12:17:55.923Z,55.16
2023-01-22T12:20:22.731Z,55.27
2023-01-22T12:22:49.108Z,54.41
2023-01-22T12:25:15.904Z,54.89
2023-01-22T12:27:43.294Z,54.82
2023-01-22T12:30:09.771Z,55.01
2023-01-22T12:32:36.623Z,54.91
2023-01-22T12:35:03.466Z,55.27
2023-01-22T12:37:30.239Z,55.10
2023-01-22T12:39:57.006Z,55.18
2023-01-22T12:42:23.548Z,55.41
2023-01-22T12:44:49.933Z,55.14
2023-01-22T12:47:17.098Z,55.16
2023-01-22T12:49:43.673Z,55.34
2023-01-22T12:52:10.364Z,55.52
2023-01-22T12:54:37.693Z,55.14
2023-01-22T12:57:04.116Z,55.44
2023-01-22T12:59:30.793Z,56.03
2023-01-22T13:01:57.644Z,55.87
2023-01-22T13:04:24.142Z,55.84
2023-01-22T13:06:50.857Z,55.29
2023-01-22T13:09:18.148Z,55.61
2023-01-22T13:11:45.242Z,55.46
2023-01-22T13:14:15.047Z,55.22
2023-01-22T13:16:41.974Z,55.41
2023-01-22T13:19:08.797Z,55.38
2023-01-22T13:21:35.542Z,55.20
2023-01-22T13:24:02.059Z,55.03
2023-01-22T13:26:28.462Z,55.53
2023-01-22T13:28:55.201Z,55.21
2023-01-22T13:31:22.083Z,55.27
2023-01-22T13:33:48.838Z,55.35
2023-01-22T13:36:15.296Z,55.41
2023-01-22T13:38:41.799Z,55.61
2023-01-22T13:41:08.178Z,55.45
2023-01-22T13:43:34.918Z,55.41
2023-01-22T13:46:01.698Z,55.66
2023-01-22T13:48:28.269Z,55.76
2023-01-22T13:50:54.994Z,55.75
2023-01-22T13:53:21.546Z,55.88
2023-01-22T13:55:48.101Z,55.89
2023-01-22T13:58:15.271Z,55.98
2023-01-22T14:00:42.335Z,55.97
2023-01-22T14:03:09.120Z,55.45
2023-01-22T14:05:35.986Z,55.64
2023-01-22T14:08:02.644Z,55.61
2023-01-22T14:10:29.119Z,55.67
2023-01-22T14:12:55.777Z,55.63
2023-01-22T14:15:22.507Z,55.92
2023-01-22T14:17:50.655Z,56.17
2023-01-22T14:20:17.870Z,55.72
2023-01-22T14:22:44.413Z,55.64
2023-01-22T14:25:11.000Z,56.00
2023-01-22T14:27:38.056Z,55.76
2023-01-22T14:30:04.496Z,56.18
2023-01-22T14:32:31.482Z,55.84
2023-01-22T14:34:58.262Z,55.72
2023-01-22T14:37:24.908Z,55.95
2023-01-22T14:39:51.678Z,56.02
2023-01-22T14:42:18.421Z,55.78
2023-01-22T14:44:45.621Z,56.08
2023-01-22T14:47:12.504Z,55.96
2023-01-22T14:49:39.276Z,55.99
2023-01-22T14:52:06.457Z,55.91
2023-01-22T14:54:32.961Z,55.90
2023-01-22T14:56:59.815Z,56.02
2023-01-22T14:59:26.939Z,56.12
2023-01-22T15:01:53.483Z,55.72
2023-01-22T15:04:20.254Z,56.05
2023-01-22T15:06:46.830Z,55.74
2023-01-22T15:09:13.627Z,56.08
2023-01-22T15:11:40.230Z,55.79
2023-01-22T15:14:07.061Z,55.58
2023-01-22T15:16:33.693Z,55.63
2023-01-22T15:19:00.111Z,55.94
2023-01-22T15:21:26.699Z,55.98
2023-01-22T15:23:53.682Z,55.60
2023-01-22T15:26:20.169Z,55.99
2023-01-22T15:28:46.786Z,55.67
2023-01-22T15:31:13.523Z,56.02
2023-01-22T15:33:40.108Z,55.70
2023-01-22T15:36:06.682Z,55.40
2023-01-22T15:38:33.169Z,54.98
2023-01-22T15:40:59.553Z,54.78
2023-01-22T15:43:26.054Z,54.72
2023-01-22T15:45:52.772Z,54.68
2023-01-22T15:48:19.741Z,54.67
2023-01-22T15:50:46.288Z,54.98
2023-01-22T15:53:12.889Z,54.45
2023-01-22T15:55:39.348Z,54.69
2023-01-22T15:58:05.887Z,54.71
2023-01-22T16:00:32.315Z,54.79
2023-01-22T16:02:59.364Z,54.41
2023-01-22T16:05:25.810Z,54.46
2023-01-22T16:07:52.725Z,53.94
2023-01-22T16:10:19.371Z,54.27
2023-01-22T16:12:46.173Z,53.84
2023-01-22T16:15:13.009Z,53.66
2023-01-22T16:17:39.858Z,53.47
2023-01-22T16:20:06.439Z,53.33
2023-01-22T16:22:33.294Z,53.49
2023-01-22T16:24:59.695Z,52.84
2023-01-22T16:27:26.162Z,52.98
2023-01-22T16:29:53.175Z,52.86
2023-01-22T16:32:19.892Z,52.98
2023-01-22T16:34:47.233Z,53.00
2023-01-22T16:37:13.624Z,52.93
2023-01-22T16:39:40.167Z,52.58
2023-01-22T16:42:06.813Z,52.42
2023-01-22T16:44:33.849Z,52.75
2023-01-22T16:47:00.305Z,52.63
2023-01-22T16:49:26.827Z,52.38
2023-01-22T16:51:53.295Z,52.39
2023-01-22T16:54:20.278Z,52.30
2023-01-22T16:56:46.603Z,52.51
2023-01-22T16:59:13.689Z,52.07
2023-01-22T17:01:41.395Z,52.23
2023-01-22T17:04:08.056Z,52.35
2023-01-22T17:06:34.989Z,52.39
2023-01-22T17:09:01.571Z,52.26
2023-01-22T17:11:28.076Z,52.32
2023-01-22T17:13:54.910Z,52.16
2023-01-22T17:16:21.810Z,52.41
2023-01-22T17:18:48.430Z,52.12
2023-01-22T17:21:15.130Z,52.30
2023-01-22T17:23:42.238Z,52.14
2023-01-22T17:26:08.632Z,52.23
2023-01-22T17:28:35.030Z,52.29
2023-01-22T17:31:01.561Z,52.08
2023-01-22T17:33:28.434Z,52.13
2023-01-22T17:35:55.351Z,52.15
2023-01-22T17:38:22.211Z,52.09
2023-01-22T17:40:48.643Z,52.36
2023-01-22T17:43:15.414Z,52.00
2023-01-22T17:45:42.529Z,52.23
2023-01-22T17:48:09.817Z,52.11
2023-01-22T17:50:36.560Z,52.16
2023-01-22T17:53:03.402Z,52.27
2023-01-22T17:55:29.927Z,52.33
2023-01-22T17:57:56.455Z,52.41
2023-01-22T18:00:23.249Z,52.44
2023-01-22T18:02:50.373Z,52.09
2023-01-22T18:05:17.102Z,52.17
2023-01-22T18:07:43.749Z,52.13
2023-01-22T18:10:10.713Z,52.16
2023-01-22T18:12:37.325Z,52.24
2023-01-22T18:15:03.913Z,52.37
2023-01-22T18:17:30.370Z,52.39
2023-01-22T18:19:57.361Z,52.22
2023-01-22T18:22:24.536Z,52.29
2023-01-22T18:24:50.989Z,52.45
2023-01-22T18:27:17.537Z,52.39
2023-01-22T18:29:43.985Z,52.43
2023-01-22T18:32:10.886Z,52.22
2023-01-22T18:34:37.351Z,52.38
2023-01-22T18:37:03.863Z,52.19
2023-01-22T18:39:30.271Z,52.24
2023-01-22T18:41:57.157Z,52.20
2023-01-22T18:44:24.291Z,52.33
2023-01-22T18:46:51.088Z,52.42
2023-01-22T18:49:17.755Z,52.35
2023-01-22T18:51:44.736Z,52.47
2023-01-22T18:54:11.594Z,52.23
2023-01-22T18:56:38.290Z,52.53
2023-01-22T18:59:04.836Z,52.14
2023-01-22T19:01:31.342Z,52.49
2023-01-22T19:03:57.795Z,52.58
2023-01-22T19:06:24.442Z,52.27
2023-01-22T19:08:51.575Z,52.30
2023-01-22T19:11:18.040Z,52.51
2023-01-22T19:13:44.650Z,52.35
2023-01-22T19:16:11.690Z,52.47
2023-01-22T19:18:38.415Z,52.34
2023-01-22T19:21:05.374Z,52.44
2023-01-22T19:23:32.037Z,52.57
2023-01-22T19:25:58.775Z,52.67
2023-01-22T19:28:25.687Z,52.37
2023-01-22T19:30:52.342Z,52.38
2023-01-22T19:33:18.763Z,52.35
2023-01-22T19:35:45.103Z,52.63
2023-01-22T19:38:11.646Z,52.61
2023-01-22T19:40:38.137Z,52.47
2023-01-22T19:43:05.223Z,52.36
2023-01-22T19:45:31.637Z,52.34
2023-01-22T19:47:58.043Z,52.23
2023-01-22T19:50:24.725Z,52.51
2023-01-22T19:52:51.507Z,52.67
2023-01-22T19:55:18.200Z,52.77
2023-01-22T19:57:44.822Z,52.32
2023-01-22T20:00:11.442Z,52.58
2023-01-22T20:02:38.125Z,52.32
2023-01-22T20:05:05.262Z,52.53
2023-01-22T20:07:32.308Z,52.69
2023-01-22T20:09:58.739Z,52.73
2023-01-22T20:12:25.306Z,52.52
2023-01-22T20:14:52.138Z,52.61
2023-01-22T20:17:18.594Z,52.59
2023-01-22T20:19:44.972Z,52.64
2023-01-22T20:22:11.560Z,52.57
2023-01-22T20:24:38.285Z,52.62
2023-01-22T20:27:05.144Z,52.73
2023-01-22T20:29:31.504Z,52.87
2023-01-22T20:31:58.225Z,52.73
2023-01-22T20:34:25.990Z,52.72
2023-01-22T20:36:53.035Z,52.62
2023-01-22T20:39:19.524Z,52.77
2023-01-22T20:41:45.927Z,52.84
2023-01-22T20:44:12.655Z,52.71
2023-01-22T20:46:38.978Z,52.89
2023-01-22T20:49:05.393Z,52.72
2023-01-22T20:51:32.214Z,52.70
2023-01-22T20:53:59.108Z,52.59
2023-01-22T20:56:25.553Z,52.54
2023-01-22T20:58:52.761Z,52.83
2023-01-22T21:01:19.289Z,52.90
2023-01-22T21:03:45.687Z,52.49
2023-01-22T21:06:14.005Z,52.73
2023-01-22T21:08:41.236Z,52.65
2023-01-22T21:11:07.824Z,52.71
2023-01-22T21:13:34.650Z,52.62
2023-01-22T21:16:01.159Z,52.95
2023-01-22T21:18:27.576Z,52.90
2023-01-22T21:20:54.377Z,52.87
2023-01-22T21:23:21.289Z,52.94
2023-01-22T21:25:47.826Z,52.86
2023-01-22T21:28:14.399Z,52.83
2023-01-22T21:30:41.058Z,52.89
2023-01-22T21:33:07.751Z,52.93
2023-01-22T21:35:34.963Z,52.74
2023-01-22T21:38:01.462Z,52.82
2023-01-22T21:40:28.308Z,53.10
2023-01-22T21:42:55.406Z,53.00
2023-01-22T21:45:22.191Z,52.99
2023-01-22T21:47:48.848Z,52.80
2023-01-22T21:50:16.003Z,52.88
2023-01-22T21:52:44.926Z,53.08
2023-01-22T21:55:12.161Z,52.99
2023-01-22T21:57:38.953Z,52.81
2023-01-22T22:00:05.889Z,52.88
2023-01-22T22:02:33.077Z,53.00
2023-01-22T22:04:59.780Z,53.11
2023-01-22T22:07:26.397Z,53.01
2023-01-22T22:09:53.162Z,53.25
2023-01-22T22:12:19.533Z,53.10
2023-01-22T22:14:46.482Z,52.82
2023-01-22T22:17:13.105Z,52.80
2023-01-22T22:19:39.573Z,52.97
2023-01-22T22:22:06.375Z,53.10
2023-01-22T22:24:33.228Z,52.98
2023-01-22T22:27:00.243Z,53.33
2023-01-22T22:29:27.424Z,53.01
2023-01-22T22:31:54.771Z,53.10
2023-01-22T22:34:21.494Z,53.23
2023-01-22T22:36:48.218Z,53.09
2023-01-22T22:39:14.744Z,53.24
2023-01-22T22:41:41.249Z,53.43
2023-01-22T22:44:07.789Z,53.09
2023-01-22T22:46:34.346Z,53.11
2023-01-22T22:49:01.264Z,53.36
2023-01-22T22:51:27.724Z,53.35
2023-01-22T22:53:54.844Z,53.30
2023-01-22T22:56:21.817Z,53.30
2023-01-22T22:58:48.724Z,53.55
2023-01-22T23:01:15.398Z,53.36
2023-01-22T23:03:41.972Z,53.27
2023-01-22T23:06:08.520Z,53.34
2023-01-22T23:08:35.246Z,53.30
2023-01-22T23:11:02.066Z,53.51
2023-01-22T23:13:28.537Z,53.43
2023-01-22T23:15:55.731Z,53.43
2023-01-22T23:18:22.612Z,53.46
2023-01-22T23:20:49.149Z,53.36
2023-01-22T23:23:16.112Z,53.56
2023-01-22T23:25:42.771Z,53.65
2023-01-22T23:28:09.254Z,53.27
2023-01-22T23:30:36.023Z,53.60
2023-01-22T23:33:02.779Z,53.67
2023-01-22T23:35:29.230Z,53.53
2023-01-22T23:37:55.669Z,53.56
2023-01-22T23:40:22.271Z,53.38
2023-01-22T23:42:48.952Z,53.42
2023-01-22T23:45:15.734Z,53.47
2023-01-22T23:47:42.609Z,53.50
2023-01-22T23:50:08.952Z,53.55
2023-01-22T23:52:35.703Z,53.63
2023-01-22T23:55:02.533Z,53.65
2023-01-22T23:57:28.859Z,53.50
2023-01-22T23:59:55.842Z,53.59
